Terminal Aerodrome Forecast
Issued by NWS Quad Cities IA IL

Home | Current Version | Previous Version | Text Only | Print | Product List | Glossary On
Versions: 1 2 3 4 5 6 7 8 9 10 11 12 13 14 15 16 17 18 19 20 21 22 23 24 25 26 27 28 29 30
657
FTUS43 KDVN 222357
TAFDBQ
TAF
KDBQ 222357Z 2300/2324 20011KT P6SM SKC
     FM230200 28009KT P6SM SKC
     FM230700 34007KT P6SM SKC
     FM231500 02010KT P6SM SCT020 BKN250
     FM232100 07012KT P6SM VCSH BKN020 OVC120=

USA.gov is the U.S. government's official web portal to all federal, state and local government web resources and services.